sensor_id;sensor_type;location;lat;lon;timestamp;pressure;altitude;pressure_sealevel;temperature;humidity
64679;BME280;51094;53.864;27.676;2022-11-20T00:01:25;99110.72;;;-5.29;73.62
64679;BME280;51094;53.864;27.676;2022-11-20T00:03:54;99357.13;;;-3.91;73.78
64679;BME280;51094;53.864;27.676;2022-11-20T00:06:22;99197.50;;;-5.05;74.53
64679;BME280;51094;53.864;27.676;2022-11-20T00:08:49;99369.13;;;-4.09;74.32
64679;BME280;51094;53.864;27.676;2022-11-20T00:11:18;99189.38;;;-5.43;75.85
64679;BME280;51094;53.864;27.676;2022-11-20T00:13:47;99359.31;;;-4.42;76.08
64679;BME280;51094;53.864;27.676;2022-11-20T00:16:17;99377.88;;;-4.37;76.36
64679;BME280;51094;53.864;27.676;2022-11-20T00:18:44;99281.91;;;-4.89;76.74
64679;BME280;51094;53.864;27.676;2022-11-20T00:21:14;99397.94;;;-4.10;76.61
64679;BME280;51094;53.864;27.676;2022-11-20T00:23:41;99402.94;;;-4.00;76.66
64679;BME280;51094;53.864;27.676;2022-11-20T00:26:11;99414.78;;;-4.03;76.66
64679;BME280;51094;53.864;27.676;2022-11-20T00:28:39;99385.25;;;-4.11;75.93
64679;BME280;51094;53.864;27.676;2022-11-20T00:31:08;99401.28;;;-4.06;75.50
64679;BME280;51094;53.864;27.676;2022-11-20T00:33:35;99052.44;;;-6.27;75.27
64679;BME280;51094;53.864;27.676;2022-11-20T00:36:07;99311.34;;;-4.74;76.14
64679;BME280;51094;53.864;27.676;2022-11-20T00:38:35;99408.13;;;-4.13;75.04
64679;BME280;51094;53.864;27.676;2022-11-20T00:41:04;99294.66;;;-4.98;75.32
64679;BME280;51094;53.864;27.676;2022-11-20T00:43:31;99383.00;;;-4.43;75.46
64679;BME280;51094;53.864;27.676;2022-11-20T00:46:03;99351.78;;;-4.51;75.58
64679;BME280;51094;53.864;27.676;2022-11-20T00:48:30;99411.47;;;-4.11;75.68
64679;BME280;51094;53.864;27.676;2022-11-20T00:50:57;99386.94;;;-4.12;75.25
64679;BME280;51094;53.864;27.676;2022-11-20T00:53:24;99395.31;;;-4.02;75.20
64679;BME280;51094;53.864;27.676;2022-11-20T00:56:04;99415.53;;;-3.91;74.31
64679;BME280;51094;53.864;27.676;2022-11-20T00:58:36;99415.63;;;-3.99;74.15
64679;BME280;51094;53.864;27.676;2022-11-20T01:01:09;99404.56;;;-3.93;74.09
64679;BME280;51094;53.864;27.676;2022-11-20T01:03:41;99291.69;;;-4.49;74.27
64679;BME280;51094;53.864;27.676;2022-11-20T01:06:17;99318.59;;;-4.33;73.31
64679;BME280;51094;53.864;27.676;2022-11-20T01:08:45;99336.28;;;-4.24;73.54
64679;BME280;51094;53.864;27.676;2022-11-20T01:11:18;99328.72;;;-4.30;72.53
64679;BME280;51094;53.864;27.676;2022-11-20T01:13:46;99418.66;;;-3.66;72.65
64679;BME280;51094;53.864;27.676;2022-11-20T01:18:44;99433.03;;;-3.64;71.10
64679;BME280;51094;53.864;27.676;2022-11-20T01:21:17;99390.28;;;-4.05;68.71
64679;BME280;51094;53.864;27.676;2022-11-20T01:23:44;99410.53;;;-4.00;69.87
64679;BME280;51094;53.864;27.676;2022-11-20T01:26:14;99424.03;;;-3.94;70.01
64679;BME280;51094;53.864;27.676;2022-11-20T01:28:42;99423.91;;;-3.85;71.15
64679;BME280;51094;53.864;27.676;2022-11-20T01:31:24;99416.47;;;-4.00;70.56
64679;BME280;51094;53.864;27.676;2022-11-20T01:33:53;99409.41;;;-3.74;70.73
64679;BME280;51094;53.864;27.676;2022-11-20T01:36:22;99433.72;;;-3.50;70.47
64679;BME280;51094;53.864;27.676;2022-11-20T01:38:53;99445.72;;;-3.62;69.86
64679;BME280;51094;53.864;27.676;2022-11-20T01:41:20;99406.09;;;-3.80;68.83
64679;BME280;51094;53.864;27.676;2022-11-20T01:44:06;99417.13;;;-3.84;69.84
64679;BME280;51094;53.864;27.676;2022-11-20T01:46:35;99232.03;;;-4.91;69.06
64679;BME280;51094;53.864;27.676;2022-11-20T01:49:21;99399.16;;;-4.53;68.92
64679;BME280;51094;53.864;27.676;2022-11-20T01:51:56;99409.03;;;-4.21;69.01
64679;BME280;51094;53.864;27.676;2022-11-20T01:54:31;99334.09;;;-4.63;69.00
64679;BME280;51094;53.864;27.676;2022-11-20T01:57:01;99330.69;;;-4.58;68.23
64679;BME280;51094;53.864;27.676;2022-11-20T01:59:30;99397.22;;;-4.25;68.50
64679;BME280;51094;53.864;27.676;2022-11-20T02:01:57;99334.03;;;-4.54;68.55
64679;BME280;51094;53.864;27.676;2022-11-20T02:04:24;99409.88;;;-4.21;68.31
64679;BME280;51094;53.864;27.676;2022-11-20T02:07:00;99359.34;;;-4.45;68.86
64679;BME280;51094;53.864;27.676;2022-11-20T02:09:27;99320.53;;;-4.58;68.19
64679;BME280;51094;53.864;27.676;2022-11-20T02:11:54;99175.84;;;-5.41;68.78
64679;BME280;51094;53.864;27.676;2022-11-20T02:14:22;99344.06;;;-4.39;69.54
64679;BME280;51094;53.864;27.676;2022-11-20T02:16:49;99387.09;;;-4.28;69.63
64679;BME280;51094;53.864;27.676;2022-11-20T02:19:29;99434.13;;;-3.89;69.44
64679;BME280;51094;53.864;27.676;2022-11-20T02:22:08;99403.94;;;-4.20;70.23
64679;BME280;51094;53.864;27.676;2022-11-20T02:24:39;99429.97;;;-3.96;70.85
64679;BME280;51094;53.864;27.676;2022-11-20T02:27:09;99251.03;;;-5.44;69.29
64679;BME280;51094;53.864;27.676;2022-11-20T02:29:39;99449.56;;;-4.09;70.23
64679;BME280;51094;53.864;27.676;2022-11-20T02:32:21;99390.63;;;-4.45;70.39
64679;BME280;51094;53.864;27.676;2022-11-20T02:34:48;99443.66;;;-4.10;70.66
64679;BME280;51094;53.864;27.676;2022-11-20T02:37:15;99420.03;;;-4.21;70.44
64679;BME280;51094;53.864;27.676;2022-11-20T02:39:44;99447.97;;;-4.21;70.95
64679;BME280;51094;53.864;27.676;2022-11-20T02:42:15;99485.97;;;-4.09;70.66
64679;BME280;51094;53.864;27.676;2022-11-20T02:44:42;99354.34;;;-4.57;69.54
64679;BME280;51094;53.864;27.676;2022-11-20T02:47:09;99436.94;;;-4.17;69.15
64679;BME280;51094;53.864;27.676;2022-11-20T02:49:35;99266.19;;;-5.32;69.44
64679;BME280;51094;53.864;27.676;2022-11-20T02:52:02;99424.31;;;-4.29;69.32
64679;BME280;51094;53.864;27.676;2022-11-20T02:54:29;99438.59;;;-4.13;69.72
64679;BME280;51094;53.864;27.676;2022-11-20T02:56:56;99344.28;;;-4.66;68.84
64679;BME280;51094;53.864;27.676;2022-11-20T02:59:22;99385.56;;;-4.46;69.64
64679;BME280;51094;53.864;27.676;2022-11-20T03:01:49;99325.03;;;-4.92;69.47
64679;BME280;51094;53.864;27.676;2022-11-20T03:04:16;99405.16;;;-4.66;69.40
64679;BME280;51094;53.864;27.676;2022-11-20T03:06:43;99447.28;;;-4.38;69.25
64679;BME280;51094;53.864;27.676;2022-11-20T03:09:10;99304.22;;;-5.40;69.17
64679;BME280;51094;53.864;27.676;2022-11-20T03:11:36;99316.81;;;-5.23;69.41
64679;BME280;51094;53.864;27.676;2022-11-20T03:14:04;99373.25;;;-4.96;69.46
64679;BME280;51094;53.864;27.676;2022-11-20T03:16:31;99462.50;;;-4.37;69.22
64679;BME280;51094;53.864;27.676;2022-11-20T03:18:59;99375.72;;;-4.84;68.62
64679;BME280;51094;53.864;27.676;2022-11-20T03:21:26;99389.28;;;-4.91;68.36
64679;BME280;51094;53.864;27.676;2022-11-20T03:23:54;99433.94;;;-4.69;68.15
64679;BME280;51094;53.864;27.676;2022-11-20T03:26:23;99444.88;;;-4.59;68.17
64679;BME280;51094;53.864;27.676;2022-11-20T03:28:55;99481.22;;;-4.51;67.99
64679;BME280;51094;53.864;27.676;2022-11-20T03:31:24;99422.25;;;-4.87;69.22
64679;BME280;51094;53.864;27.676;2022-11-20T03:33:52;99462.63;;;-4.56;69.51
64679;BME280;51094;53.864;27.676;2022-11-20T03:36:20;99445.03;;;-4.82;69.76
64679;BME280;51094;53.864;27.676;2022-11-20T03:38:48;99443.34;;;-4.83;69.89
64679;BME280;51094;53.864;27.676;2022-11-20T03:41:28;99389.53;;;-5.37;69.03
64679;BME280;51094;53.864;27.676;2022-11-20T03:43:58;99476.31;;;-4.80;69.20
64679;BME280;51094;53.864;27.676;2022-11-20T03:46:26;99483.84;;;-4.71;69.53
64679;BME280;51094;53.864;27.676;2022-11-20T03:48:53;99477.06;;;-4.64;68.71
64679;BME280;51094;53.864;27.676;2022-11-20T03:51:21;99472.78;;;-4.58;68.44
64679;BME280;51094;53.864;27.676;2022-11-20T03:53:51;99165.63;;;-6.66;68.04
64679;BME280;51094;53.864;27.676;2022-11-20T03:56:20;99477.84;;;-4.56;68.48
64679;BME280;51094;53.864;27.676;2022-11-20T03:58:47;99407.94;;;-5.00;68.66
64679;BME280;51094;53.864;27.676;2022-11-20T04:01:17;99471.84;;;-4.43;67.99
64679;BME280;51094;53.864;27.676;2022-11-20T04:03:45;99469.16;;;-4.25;69.09
64679;BME280;51094;53.864;27.676;2022-11-20T04:06:18;99465.69;;;-4.13;67.72
64679;BME280;51094;53.864;27.676;2022-11-20T04:08:45;99413.56;;;-4.58;66.89
64679;BME280;51094;53.864;27.676;2022-11-20T04:11:22;99477.78;;;-4.44;67.57
64679;BME280;51094;53.864;27.676;2022-11-20T04:13:51;99259.88;;;-6.09;68.30
64679;BME280;51094;53.864;27.676;2022-11-20T04:16:19;99424.66;;;-4.75;68.68
64679;BME280;51094;53.864;27.676;2022-11-20T04:18:46;99426.38;;;-4.75;68.35
64679;BME280;51094;53.864;27.676;2022-11-20T04:21:12;99184.81;;;-6.15;67.98
64679;BME280;51094;53.864;27.676;2022-11-20T04:23:39;99440.75;;;-4.74;68.06
64679;BME280;51094;53.864;27.676;2022-11-20T04:26:08;99407.91;;;-4.95;68.85
64679;BME280;51094;53.864;27.676;2022-11-20T04:28:36;99454.19;;;-4.58;68.89
64679;BME280;51094;53.864;27.676;2022-11-20T04:31:17;99435.75;;;-4.85;68.65
64679;BME280;51094;53.864;27.676;2022-11-20T04:33:44;99284.22;;;-5.84;68.65
64679;BME280;51094;53.864;27.676;2022-11-20T04:36:16;99475.28;;;-4.50;68.77
64679;BME280;51094;53.864;27.676;2022-11-20T04:38:44;99476.09;;;-4.48;68.06
64679;BME280;51094;53.864;27.676;2022-11-20T04:41:15;99368.53;;;-5.62;68.39
64679;BME280;51094;53.864;27.676;2022-11-20T04:43:46;99543.75;;;-4.41;69.37
64679;BME280;51094;53.864;27.676;2022-11-20T04:46:13;99469.19;;;-4.28;68.05
64679;BME280;51094;53.864;27.676;2022-11-20T04:48:39;99410.34;;;-4.79;68.03
64679;BME280;51094;53.864;27.676;2022-11-20T04:51:06;99483.78;;;-4.56;68.07
64679;BME280;51094;53.864;27.676;2022-11-20T04:53:33;99423.91;;;-4.86;68.37
64679;BME280;51094;53.864;27.676;2022-11-20T04:56:00;99395.31;;;-5.12;68.41
64679;BME280;51094;53.864;27.676;2022-11-20T04:58:28;99489.66;;;-4.48;68.89
64679;BME280;51094;53.864;27.676;2022-11-20T05:01:04;99434.88;;;-4.79;68.42
64679;BME280;51094;53.864;27.676;2022-11-20T05:03:31;99463.66;;;-4.85;68.28
64679;BME280;51094;53.864;27.676;2022-11-20T05:06:03;99528.56;;;-4.50;68.50
64679;BME280;51094;53.864;27.676;2022-11-20T05:08:30;99432.41;;;-4.93;68.60
64679;BME280;51094;53.864;27.676;2022-11-20T05:11:06;99434.97;;;-4.97;69.19
64679;BME280;51094;53.864;27.676;2022-11-20T05:13:33;99413.94;;;-5.16;69.02
64679;BME280;51094;53.864;27.676;2022-11-20T05:16:08;99472.94;;;-4.81;69.38
64679;BME280;51094;53.864;27.676;2022-11-20T05:18:36;99488.09;;;-4.72;70.60
64679;BME280;51094;53.864;27.676;2022-11-20T05:21:03;99362.53;;;-5.43;69.56
64679;BME280;51094;53.864;27.676;2022-11-20T05:23:31;99492.38;;;-4.81;69.69
64679;BME280;51094;53.864;27.676;2022-11-20T05:25:58;99494.06;;;-4.80;70.28
64679;BME280;51094;53.864;27.676;2022-11-20T05:28:26;99534.56;;;-4.65;69.97
64679;BME280;51094;53.864;27.676;2022-11-20T05:30:53;99491.59;;;-4.94;69.54
64679;BME280;51094;53.864;27.676;2022-11-20T05:33:20;99525.38;;;-4.83;69.43
64679;BME280;51094;53.864;27.676;2022-11-20T05:35:48;99522.09;;;-5.12;69.84
64679;BME280;51094;53.864;27.676;2022-11-20T05:38:15;99447.88;;;-5.57;69.82
64679;BME280;51094;53.864;27.676;2022-11-20T05:40:42;99458.84;;;-5.43;70.52
64679;BME280;51094;53.864;27.676;2022-11-20T05:43:09;99247.41;;;-6.65;71.21
64679;BME280;51094;53.864;27.676;2022-11-20T05:45:36;99517.78;;;-4.89;71.36
64679;BME280;51094;53.864;27.676;2022-11-20T05:48:03;99398.88;;;-5.51;70.82
64679;BME280;51094;53.864;27.676;2022-11-20T05:50:29;99505.91;;;-4.81;70.83
64679;BME280;51094;53.864;27.676;2022-11-20T05:53:00;99503.31;;;-4.72;70.99
64679;BME280;51094;53.864;27.676;2022-11-20T05:55:27;99526.91;;;-4.54;70.20
64679;BME280;51094;53.864;27.676;2022-11-20T05:57:54;99526.97;;;-4.65;69.55
64679;BME280;51094;53.864;27.676;2022-11-20T06:00:22;99518.59;;;-4.82;69.62
64679;BME280;51094;53.864;27.676;2022-11-20T06:02:48;99441.06;;;-5.37;69.70
64679;BME280;51094;53.864;27.676;2022-11-20T06:05:15;99480.78;;;-5.31;69.91
64679;BME280;51094;53.864;27.676;2022-11-20T06:07:42;99519.47;;;-4.86;69.69
64679;BME280;51094;53.864;27.676;2022-11-20T06:10:09;99527.06;;;-4.86;69.41
64679;BME280;51094;53.864;27.676;2022-11-20T06:12:37;99527.06;;;-4.79;69.52
64679;BME280;51094;53.864;27.676;2022-11-20T06:15:05;99532.16;;;-4.85;69.39
64679;BME280;51094;53.864;27.676;2022-11-20T06:17:31;99518.50;;;-4.69;69.60
64679;BME280;51094;53.864;27.676;2022-11-20T06:19:58;99492.41;;;-4.86;69.61
64679;BME280;51094;53.864;27.676;2022-11-20T06:22:25;99528.66;;;-4.65;69.32
64679;BME280;51094;53.864;27.676;2022-11-20T06:24:52;99528.59;;;-4.56;69.06
64679;BME280;51094;53.864;27.676;2022-11-20T06:27:18;99451.13;;;-5.18;68.89
64679;BME280;51094;53.864;27.676;2022-11-20T06:29:45;99300.31;;;-5.98;68.19
64679;BME280;51094;53.864;27.676;2022-11-20T06:32:12;99518.59;;;-4.81;69.10
64679;BME280;51094;53.864;27.676;2022-11-20T06:34:39;99559.97;;;-4.71;68.63
64679;BME280;51094;53.864;27.676;2022-11-20T06:37:05;99531.22;;;-4.76;68.84
64679;BME280;51094;53.864;27.676;2022-11-20T06:39:32;99447.78;;;-5.25;69.19
64679;BME280;51094;53.864;27.676;2022-11-20T06:41:58;99556.53;;;-4.59;68.78
64679;BME280;51094;53.864;27.676;2022-11-20T06:44:25;99535.50;;;-4.77;69.29
64679;BME280;51094;53.864;27.676;2022-11-20T06:46:52;99467.16;;;-5.10;69.71
64679;BME280;51094;53.864;27.676;2022-11-20T06:49:19;99465.41;;;-5.00;69.69
64679;BME280;51094;53.864;27.676;2022-11-20T06:51:46;99361.00;;;-5.74;69.63
64679;BME280;51094;53.864;27.676;2022-11-20T06:54:13;99515.00;;;-4.46;69.25
64679;BME280;51094;53.864;27.676;2022-11-20T06:56:40;99456.03;;;-4.85;68.78
64679;BME280;51094;53.864;27.676;2022-11-20T06:59:07;99499.88;;;-4.63;69.52
64679;BME280;51094;53.864;27.676;2022-11-20T07:01:34;99295.25;;;-5.98;69.53
64679;BME280;51094;53.864;27.676;2022-11-20T07:04:01;99530.22;;;-4.43;70.13
64679;BME280;51094;53.864;27.676;2022-11-20T07:06:30;99457.69;;;-4.78;69.51
64679;BME280;51094;53.864;27.676;2022-11-20T07:08:56;99536.00;;;-4.23;69.25
64679;BME280;51094;53.864;27.676;2022-11-20T07:11:24;99546.09;;;-4.11;69.33
64679;BME280;51094;53.864;27.676;2022-11-20T07:13:50;99457.53;;;-4.56;68.23
64679;BME280;51094;53.864;27.676;2022-11-20T07:16:17;99519.09;;;-4.27;68.15
64679;BME280;51094;53.864;27.676;2022-11-20T07:18:44;99551.16;;;-4.11;68.69
64679;BME280;51094;53.864;27.676;2022-11-20T07:21:16;99290.06;;;-5.68;68.72
64679;BME280;51094;53.864;27.676;2022-11-20T07:23:42;99546.97;;;-4.18;68.72
64679;BME280;51094;53.864;27.676;2022-11-20T07:26:10;99508.94;;;-4.24;68.60
64679;BME280;51094;53.864;27.676;2022-11-20T07:28:38;99545.09;;;-3.91;68.64
64679;BME280;51094;53.864;27.676;2022-11-20T07:31:05;99467.47;;;-4.26;68.75
64679;BME280;51094;53.864;27.676;2022-11-20T07:33:33;99372.28;;;-4.77;68.47
64679;BME280;51094;53.864;27.676;2022-11-20T07:36:00;99453.09;;;-4.28;68.14
64679;BME280;51094;53.864;27.676;2022-11-20T07:38:27;99545.78;;;-3.74;67.44
64679;BME280;51094;53.864;27.676;2022-11-20T07:40:57;99434.72;;;-4.59;67.35
64679;BME280;51094;53.864;27.676;2022-11-20T07:43:24;99407.06;;;-4.97;67.32
64679;BME280;51094;53.864;27.676;2022-11-20T07:45:51;99452.50;;;-4.62;68.01
64679;BME280;51094;53.864;27.676;2022-11-20T07:48:18;99524.06;;;-4.09;69.05
64679;BME280;51094;53.864;27.676;2022-11-20T07:50:45;99440.59;;;-4.51;69.01
64679;BME280;51094;53.864;27.676;2022-11-20T07:53:12;99324.38;;;-5.18;68.24
64679;BME280;51094;53.864;27.676;2022-11-20T07:55:43;99407.56;;;-4.47;68.01
64679;BME280;51094;53.864;27.676;2022-11-20T07:58:10;99543.16;;;-3.62;66.99
64679;BME280;51094;53.864;27.676;2022-11-20T08:00:39;99408.50;;;-4.58;67.23
64679;BME280;51094;53.864;27.676;2022-11-20T08:03:07;99478.50;;;-4.31;68.09
64679;BME280;51094;53.864;27.676;2022-11-20T08:05:36;99540.78;;;-3.83;68.30
64679;BME280;51094;53.864;27.676;2022-11-20T08:08:06;99309.13;;;-5.14;67.68
64679;BME280;51094;53.864;27.676;2022-11-20T08:10:34;99539.75;;;-3.62;67.74
64679;BME280;51094;53.864;27.676;2022-11-20T08:13:00;99538.00;;;-3.53;67.75
64679;BME280;51094;53.864;27.676;2022-11-20T08:15:50;99545.56;;;-3.47;67.78
64679;BME280;51094;53.864;27.676;2022-11-20T08:18:17;99527.00;;;-3.55;67.91
64679;BME280;51094;53.864;27.676;2022-11-20T08:21:03;99535.34;;;-3.45;67.47
64679;BME280;51094;53.864;27.676;2022-11-20T08:23:30;99515.88;;;-3.46;67.75
64679;BME280;51094;53.864;27.676;2022-11-20T08:25:57;99513.31;;;-3.45;67.98
64679;BME280;51094;53.864;27.676;2022-11-20T08:28:24;99503.06;;;-3.37;66.95
64679;BME280;51094;53.864;27.676;2022-11-20T08:30:50;99529.88;;;-3.07;67.12
64679;BME280;51094;53.864;27.676;2022-11-20T08:33:18;99529.75;;;-2.99;67.23
64679;BME280;51094;53.864;27.676;2022-11-20T08:35:45;99451.50;;;-3.47;66.24
64679;BME280;51094;53.864;27.676;2022-11-20T08:38:12;99447.31;;;-3.51;66.81
64679;BME280;51094;53.864;27.676;2022-11-20T08:40:39;99421.03;;;-3.50;66.93
64679;BME280;51094;53.864;27.676;2022-11-20T08:43:06;99500.81;;;-2.89;66.29
64679;BME280;51094;53.864;27.676;2022-11-20T08:45:32;99511.91;;;-2.96;66.22
64679;BME280;51094;53.864;27.676;2022-11-20T08:48:04;99501.59;;;-2.84;66.49
64679;BME280;51094;53.864;27.676;2022-11-20T08:50:31;99525.78;;;-2.54;65.81
64679;BME280;51094;53.864;27.676;2022-11-20T08:53:06;99524.13;;;-2.57;65.06
64679;BME280;51094;53.864;27.676;2022-11-20T08:55:33;99524.06;;;-2.52;65.46
64679;BME280;51094;53.864;27.676;2022-11-20T08:58:06;99288.47;;;-3.88;65.23
64679;BME280;51094;53.864;27.676;2022-11-20T09:00:32;99517.19;;;-2.46;64.66
64679;BME280;51094;53.864;27.676;2022-11-20T09:03:00;99513.84;;;-2.51;64.74
64679;BME280;51094;53.864;27.676;2022-11-20T09:05:27;99419.69;;;-3.11;64.49
64679;BME280;51094;53.864;27.676;2022-11-20T09:07:58;99515.72;;;-2.60;64.57
64679;BME280;51094;53.864;27.676;2022-11-20T09:10:28;99435.56;;;-2.95;64.33
64679;BME280;51094;53.864;27.676;2022-11-20T09:12:55;99481.13;;;-2.75;64.35
64679;BME280;51094;53.864;27.676;2022-11-20T09:15:23;99416.28;;;-3.11;64.87
64679;BME280;51094;53.864;27.676;2022-11-20T09:17:57;99410.97;;;-2.96;64.20
64679;BME280;51094;53.864;27.676;2022-11-20T09:20:25;99292.38;;;-3.63;63.73
64679;BME280;51094;53.864;27.676;2022-11-20T09:22:53;99461.53;;;-2.70;63.19
64679;BME280;51094;53.864;27.676;2022-11-20T09:25:21;99511.22;;;-2.45;63.47
64679;BME280;51094;53.864;27.676;2022-11-20T09:27:48;99476.13;;;-2.83;62.79
64679;BME280;51094;53.864;27.676;2022-11-20T09:30:15;99434.25;;;-3.23;62.84
64679;BME280;51094;53.864;27.676;2022-11-20T09:32:42;99354.19;;;-3.58;62.16
64679;BME280;51094;53.864;27.676;2022-11-20T09:35:09;99379.47;;;-3.49;62.42
64679;BME280;51094;53.864;27.676;2022-11-20T09:37:37;99489.69;;;-2.82;62.65
64679;BME280;51094;53.864;27.676;2022-11-20T09:40:04;99434.25;;;-3.23;61.64
64679;BME280;51094;53.864;27.676;2022-11-20T09:42:41;99498.13;;;-2.79;62.30
64679;BME280;51094;53.864;27.676;2022-11-20T09:46:04;99423.22;;;-3.22;61.95
64679;BME280;51094;53.864;27.676;2022-11-20T09:48:29;99486.03;;;-2.63;62.88
64679;BME280;51094;53.864;27.676;2022-11-20T09:51:28;99485.66;;;-2.37;62.71
64679;BME280;51094;53.864;27.676;2022-11-20T09:54:18;99484.44;;;-2.15;62.58
64679;BME280;51094;53.864;27.676;2022-11-20T09:56:50;99442.47;;;-2.45;61.42
64679;BME280;51094;53.864;27.676;2022-11-20T10:02:15;99417.59;;;-2.83;61.39
64679;BME280;51094;53.864;27.676;2022-11-20T10:04:51;99407.47;;;-2.87;61.12
64679;BME280;51094;53.864;27.676;2022-11-20T10:07:24;99470.88;;;-2.71;61.14
64679;BME280;51094;53.864;27.676;2022-11-20T10:09:58;99415.22;;;-2.96;61.24
64679;BME280;51094;53.864;27.676;2022-11-20T10:12:28;99468.06;;;-2.54;61.89
64679;BME280;51094;53.864;27.676;2022-11-20T10:15:33;99476.47;;;-2.47;61.79
64679;BME280;51094;53.864;27.676;2022-11-20T10:18:16;99383.19;;;-3.08;61.99
64679;BME280;51094;53.864;27.676;2022-11-20T10:23:39;99470.88;;;-2.71;61.78
64679;BME280;51094;53.864;27.676;2022-11-20T10:26:28;99333.63;;;-3.44;62.66
64679;BME280;51094;53.864;27.676;2022-11-20T10:29:14;99479.09;;;-2.53;62.02
64679;BME280;51094;53.864;27.676;2022-11-20T10:31:42;99487.56;;;-2.51;61.43
64679;BME280;51094;53.864;27.676;2022-11-20T10:36:55;99474.72;;;-2.44;62.39
64679;BME280;51094;53.864;27.676;2022-11-20T10:39:30;99462.75;;;-2.37;62.42
64679;BME280;51094;53.864;27.676;2022-11-20T10:41:59;99387.09;;;-2.86;62.25
64679;BME280;51094;53.864;27.676;2022-11-20T10:44:29;99439.06;;;-2.44;62.21
64679;BME280;51094;53.864;27.676;2022-11-20T10:47:22;99472.94;;;-2.37;61.28
64679;BME280;51094;53.864;27.676;2022-11-20T10:49:52;99453.19;;;-2.81;61.07
64679;BME280;51094;53.864;27.676;2022-11-20T10:52:42;99345.38;;;-4.02;61.82
64679;BME280;51094;53.864;27.676;2022-11-20T11:00:18;99414.31;;;-2.92;61.91
64679;BME280;51094;53.864;27.676;2022-11-20T11:02:49;99457.19;;;-2.63;62.19
64679;BME280;51094;53.864;27.676;2022-11-20T11:05:18;99463.91;;;-2.59;62.35
64679;BME280;51094;53.864;27.676;2022-11-20T11:07:51;99418.00;;;-3.12;61.70
64679;BME280;51094;53.864;27.676;2022-11-20T11:10:32;99465.75;;;-2.67;61.85
64679;BME280;51094;53.864;27.676;2022-11-20T11:13:02;99051.19;;;-5.78;61.89
64679;BME280;51094;53.864;27.676;2022-11-20T11:15:39;99431.19;;;-2.85;61.71
64679;BME280;51094;53.864;27.676;2022-11-20T11:18:22;99385.78;;;-3.13;61.88
64679;BME280;51094;53.864;27.676;2022-11-20T11:20:50;99462.41;;;-2.73;61.69
64679;BME280;51094;53.864;27.676;2022-11-20T11:23:29;99458.97;;;-2.69;61.89
64679;BME280;51094;53.864;27.676;2022-11-20T11:25:58;99468.31;;;-2.69;61.73
64679;BME280;51094;53.864;27.676;2022-11-20T11:28:26;99475.06;;;-2.66;62.31
64679;BME280;51094;53.864;27.676;2022-11-20T11:30:55;99467.44;;;-2.66;62.58
64679;BME280;51094;53.864;27.676;2022-11-20T11:35:55;99476.56;;;-2.55;62.48
64679;BME280;51094;53.864;27.676;2022-11-20T11:38:40;99480.94;;;-2.61;62.42
64679;BME280;51094;53.864;27.676;2022-11-20T11:41:16;99428.50;;;-2.75;62.56
64679;BME280;51094;53.864;27.676;2022-11-20T11:43:56;99467.44;;;-2.66;62.96
64679;BME280;51094;53.864;27.676;2022-11-20T11:46:55;99232.91;;;-4.13;62.86
64679;BME280;51094;53.864;27.676;2022-11-20T11:49:23;99498.63;;;-2.54;62.98
64679;BME280;51094;53.864;27.676;2022-11-20T11:54:43;99481.59;;;-2.49;63.38
64679;BME280;51094;53.864;27.676;2022-11-20T11:57:20;99508.09;;;-2.62;63.04
64679;BME280;51094;53.864;27.676;2022-11-20T12:00:03;99485.75;;;-2.43;63.06
64679;BME280;51094;53.864;27.676;2022-11-20T12:05:40;99479.03;;;-2.49;63.01
64679;BME280;51094;53.864;27.676;2022-11-20T12:08:19;99458.00;;;-2.60;63.33
64679;BME280;51094;53.864;27.676;2022-11-20T12:11:02;99482.53;;;-2.56;63.12
64679;BME280;51094;53.864;27.676;2022-11-20T12:16:02;99479.09;;;-2.53;64.46
64679;BME280;51094;53.864;27.676;2022-11-20T12:18:32;99484.97;;;-2.48;63.50
64679;BME280;51094;53.864;27.676;2022-11-20T12:34:56;99431.44;;;-2.44;62.04
64679;BME280;51094;53.864;27.676;2022-11-20T12:37:48;99336.19;;;-2.86;62.18
64679;BME280;51094;53.864;27.676;2022-11-20T12:40:44;99320.53;;;-3.14;61.84
64679;BME280;51094;53.864;27.676;2022-11-20T12:43:25;99426.56;;;-2.59;61.77
64679;BME280;51094;53.864;27.676;2022-11-20T12:46:35;99443.41;;;-2.50;62.41
64679;BME280;51094;53.864;27.676;2022-11-20T12:49:25;99406.34;;;-2.66;62.47
64679;BME280;51094;53.864;27.676;2022-11-20T12:55:16;99383.41;;;-2.65;62.58
64679;BME280;51094;53.864;27.676;2022-11-20T12:57:55;99344.84;;;-2.96;62.27
64679;BME280;51094;53.864;27.676;2022-11-20T13:00:25;99465.31;;;-2.40;62.66
64679;BME280;51094;53.864;27.676;2022-11-20T13:03:22;99298.44;;;-3.10;63.06
64679;BME280;51094;53.864;27.676;2022-11-20T13:06:17;99371.75;;;-2.81;62.79
64679;BME280;51094;53.864;27.676;2022-11-20T13:08:52;99340.84;;;-3.11;62.08
64679;BME280;51094;53.864;27.676;2022-11-20T13:11:32;99438.91;;;-2.91;62.25
64679;BME280;51094;53.864;27.676;2022-11-20T13:14:10;99326.53;;;-3.87;62.80
64679;BME280;51094;53.864;27.676;2022-11-20T13:17:04;99426.16;;;-2.90;63.24
64679;BME280;51094;53.864;27.676;2022-11-20T13:19:32;99376.47;;;-3.12;63.51
64679;BME280;51094;53.864;27.676;2022-11-20T13:22:00;99370.34;;;-3.01;63.90
64679;BME280;51094;53.864;27.676;2022-11-20T13:24:29;99427.38;;;-2.57;63.31
64679;BME280;51094;53.864;27.676;2022-11-20T13:29:28;99425.06;;;-2.72;62.81
64679;BME280;51094;53.864;27.676;2022-11-20T13:32:12;99390.81;;;-3.08;63.36
64679;BME280;51094;53.864;27.676;2022-11-20T13:34:54;99283.19;;;-3.73;64.32
64679;BME280;51094;53.864;27.676;2022-11-20T13:37:36;99314.69;;;-3.22;64.22
64679;BME280;51094;53.864;27.676;2022-11-20T13:45:39;99417.16;;;-2.54;63.84
64679;BME280;51094;53.864;27.676;2022-11-20T13:48:21;99454.50;;;-2.54;63.78
64679;BME280;51094;53.864;27.676;2022-11-20T13:51:08;99411.94;;;-2.46;64.24
64679;BME280;51094;53.864;27.676;2022-11-20T13:53:52;99338.66;;;-3.38;63.75
64679;BME280;51094;53.864;27.676;2022-11-20T14:02:19;99453.84;;;-2.67;63.94
64679;BME280;51094;53.864;27.676;2022-11-20T14:04:51;99393.16;;;-2.96;63.68
64679;BME280;51094;53.864;27.676;2022-11-20T14:07:23;99387.19;;;-2.92;64.09
64679;BME280;51094;53.864;27.676;2022-11-20T14:09:56;99376.19;;;-2.94;64.11